Time;durP1;ratioP1;P1;durP2;ratioP2;P2;SDS_P1;SDS_P2;PMS_P1;PMS_P2;Temp;Humidity;BMP_temperature;BMP_pressure;BME280_temperature;BME280_humidity;BME280_pressure;Samples;Min_cycle;Max_cycle;Signal;HPM_P1;HPM_P2
2021/05/05 00:01:18;;;;;;;8.90;2.35;;;8.90;99.90;;;;;;4952452;29;20500;-74
2021/05/05 00:03:44;;;;;;;3.63;1.65;;;9.00;99.90;;;;;;4952243;29;20039;-72
2021/05/05 00:06:12;;;;;;;4.30;2.05;;;8.90;99.90;;;;;;4955852;29;20066;-73
2021/05/05 00:08:38;;;;;;;3.22;1.70;;;9.00;99.90;;;;;;4952834;29;20042;-73
2021/05/05 00:11:04;;;;;;;3.88;1.50;;;8.90;99.90;;;;;;4956538;29;20028;-73
2021/05/05 00:13:29;;;;;;;3.92;1.40;;;8.90;99.90;;;;;;4950334;29;20019;-73
2021/05/05 00:15:55;;;;;;;3.85;1.75;;;9.00;99.90;;;;;;4953941;29;20050;-74
2021/05/05 00:18:20;;;;;;;2.28;1.35;;;9.00;99.90;;;;;;4951155;29;20031;-74
2021/05/05 00:20:46;;;;;;;3.05;1.70;;;9.10;99.90;;;;;;4963331;29;20062;-73
2021/05/05 00:23:12;;;;;;;2.47;1.50;;;9.10;99.90;;;;;;4952274;29;20046;-73
2021/05/05 00:25:37;;;;;;;3.00;1.50;;;9.10;99.90;;;;;;4958509;29;20035;-72
2021/05/05 00:28:03;;;;;;;2.95;1.60;;;9.10;99.90;;;;;;4966629;28;20035;-73
2021/05/05 00:30:29;;;;;;;3.83;1.60;;;8.90;99.90;;;;;;4971099;29;20027;-72
2021/05/05 00:32:55;;;;;;;3.05;1.65;;;8.90;99.90;;;;;;4970497;29;20421;-74
2021/05/05 00:35:21;;;;;;;2.53;1.50;;;8.80;99.90;;;;;;4966857;29;20095;-73
2021/05/05 00:37:47;;;;;;;3.72;1.67;;;8.80;99.90;;;;;;4960036;29;20036;-73
2021/05/05 00:40:13;;;;;;;4.00;1.80;;;8.80;99.90;;;;;;4957468;29;20046;-73
2021/05/05 00:42:39;;;;;;;2.83;1.40;;;8.80;99.90;;;;;;4965189;29;20036;-73
2021/05/05 00:45:11;;;;;;;2.58;1.13;;;8.70;99.90;;;;;;4969628;29;20062;-73
2021/05/05 00:47:37;;;;;;;2.85;1.60;;;8.70;99.90;;;;;;4969929;29;20035;-73
2021/05/05 00:50:06;;;;;;;2.58;1.55;;;8.60;99.90;;;;;;4962701;29;20035;-73
2021/05/05 00:52:32;;;;;;;4.68;1.48;;;8.60;99.90;;;;;;4954887;29;20082;-73
2021/05/05 00:54:58;;;;;;;2.95;1.58;;;8.60;99.90;;;;;;4952778;29;20031;-73
2021/05/05 00:57:26;;;;;;;3.65;1.40;;;8.70;99.90;;;;;;4951678;29;20062;-73
2021/05/05 00:59:52;;;;;;;3.67;1.63;;;8.70;99.90;;;;;;4926327;29;20032;-73
2021/05/05 01:02:18;;;;;;;5.10;1.70;;;8.70;99.90;;;;;;4951460;29;20034;-73
2021/05/05 01:04:44;;;;;;;2.83;1.85;;;8.70;99.90;;;;;;4926253;29;20056;-72
2021/05/05 01:07:10;;;;;;;4.00;1.60;;;8.70;99.90;;;;;;4950521;29;20027;-73
2021/05/05 01:09:38;;;;;;;4.68;1.77;;;8.60;99.90;;;;;;4952003;29;20541;-73
2021/05/05 01:12:05;;;;;;;3.78;1.90;;;8.50;99.90;;;;;;4954832;29;20042;-74
2021/05/05 01:14:30;;;;;;;4.25;1.50;;;8.60;99.90;;;;;;4949395;29;20034;-73
2021/05/05 01:16:56;;;;;;;3.17;1.80;;;8.60;99.90;;;;;;4949739;29;20215;-72
2021/05/05 01:19:22;;;;;;;2.90;1.73;;;8.70;99.90;;;;;;4952065;29;20038;-73
2021/05/05 01:21:47;;;;;;;3.80;1.65;;;8.70;99.90;;;;;;4956032;29;20122;-72
2021/05/05 01:24:13;;;;;;;2.92;1.58;;;8.70;99.90;;;;;;4946775;29;20041;-73
2021/05/05 01:26:39;;;;;;;2.33;1.83;;;8.70;99.90;;;;;;4955345;29;20042;-74
2021/05/05 01:29:05;;;;;;;2.72;1.70;;;8.60;99.90;;;;;;4953675;29;20070;-73
2021/05/05 01:31:31;;;;;;;4.32;1.65;;;8.60;99.90;;;;;;4949399;29;20425;-73
2021/05/05 01:33:57;;;;;;;3.92;1.75;;;8.50;99.90;;;;;;4942252;29;20050;-73
2021/05/05 01:36:27;;;;;;;3.92;1.70;;;8.40;99.90;;;;;;4941217;29;20032;-73
2021/05/05 01:38:53;;;;;;;4.07;1.67;;;8.40;99.90;;;;;;4940377;29;20027;-72
2021/05/05 01:41:20;;;;;;;2.70;1.83;;;8.30;99.90;;;;;;4945462;28;20035;-73
2021/05/05 01:43:46;;;;;;;4.85;2.33;;;8.30;99.90;;;;;;4946582;29;20410;-73
2021/05/05 01:46:12;;;;;;;2.85;1.55;;;8.20;99.90;;;;;;4943304;29;20035;-73
2021/05/05 01:48:37;;;;;;;4.07;2.00;;;8.20;99.90;;;;;;4944639;29;20038;-73
2021/05/05 01:51:03;;;;;;;3.55;2.33;;;8.20;99.90;;;;;;4950788;29;20486;-73
2021/05/05 01:53:29;;;;;;;3.42;1.85;;;8.10;99.90;;;;;;4944820;29;20043;-73
2021/05/05 01:55:55;;;;;;;3.40;1.70;;;8.20;99.90;;;;;;4949848;29;20078;-73
2021/05/05 01:58:21;;;;;;;4.45;1.80;;;8.20;99.90;;;;;;4943879;29;20114;-73
2021/05/05 02:00:46;;;;;;;3.58;1.58;;;8.20;99.90;;;;;;4948265;29;20127;-74
2021/05/05 02:03:12;;;;;;;5.38;1.80;;;8.20;99.90;;;;;;4949553;29;20027;-74
2021/05/05 02:05:38;;;;;;;5.05;1.95;;;8.30;99.90;;;;;;4949388;29;20118;-73
2021/05/05 02:08:04;;;;;;;5.10;1.73;;;8.30;99.90;;;;;;4947584;29;20039;-72
2021/05/05 02:10:29;;;;;;;4.35;2.45;;;8.40;99.90;;;;;;4953595;29;20027;-73
2021/05/05 02:12:55;;;;;;;4.97;1.48;;;8.40;99.90;;;;;;4953764;29;20074;-73
2021/05/05 02:15:22;;;;;;;3.72;1.88;;;8.50;99.90;;;;;;4956733;29;20019;-73
2021/05/05 02:17:49;;;;;;;7.03;2.08;;;8.50;99.90;;;;;;4946487;29;20027;-72
2021/05/05 02:20:17;;;;;;;2.88;1.88;;;8.50;99.90;;;;;;4947225;29;20031;-73
2021/05/05 02:22:44;;;;;;;5.53;1.58;;;8.50;99.90;;;;;;4949052;29;20039;-73
2021/05/05 02:25:10;;;;;;;4.10;2.05;;;8.50;99.90;;;;;;4944809;29;20027;-74
2021/05/05 02:27:37;;;;;;;4.50;2.05;;;8.40;99.90;;;;;;4947333;29;20026;-73
2021/05/05 02:30:09;;;;;;;4.55;2.10;;;8.50;99.90;;;;;;4928514;29;20031;-72
2021/05/05 02:32:35;;;;;;;;;;;8.40;99.90;;;;;;4932622;29;20054;-73
2021/05/05 02:35:01;;;;;;;2.50;1.42;;;8.40;99.90;;;;;;4952367;29;20005;-73
2021/05/05 02:37:26;;;;;;;6.20;2.15;;;8.40;99.90;;;;;;4944421;29;20024;-73
2021/05/05 02:39:52;;;;;;;4.80;2.22;;;8.30;99.90;;;;;;4949120;29;20031;-72
2021/05/05 02:42:19;;;;;;;6.05;2.58;;;8.30;99.90;;;;;;4958636;29;20106;-73
2021/05/05 02:44:48;;;;;;;2.50;1.67;;;8.30;99.90;;;;;;4955808;29;20051;-73
2021/05/05 02:47:14;;;;;;;3.67;1.83;;;8.40;99.90;;;;;;4950474;29;20032;-73
2021/05/05 02:49:39;;;;;;;6.47;1.77;;;8.40;99.90;;;;;;4950078;29;20039;-73
2021/05/05 02:52:05;;;;;;;4.38;2.67;;;8.40;99.90;;;;;;4951041;29;20028;-73
2021/05/05 02:54:32;;;;;;;4.20;2.08;;;8.40;99.90;;;;;;4953954;29;20517;-73
2021/05/05 02:56:58;;;;;;;2.92;1.50;;;8.30;99.90;;;;;;4957890;29;20027;-73
2021/05/05 02:59:26;;;;;;;6.38;2.08;;;8.30;99.90;;;;;;4955893;29;20030;-73
2021/05/05 03:01:53;;;;;;;8.57;2.70;;;8.20;99.90;;;;;;4953772;29;20035;-73
2021/05/05 03:04:18;;;;;;;4.07;1.67;;;8.20;99.90;;;;;;4951624;29;20106;-73
2021/05/05 03:06:44;;;;;;;3.33;2.08;;;8.20;99.90;;;;;;4960437;29;20025;-73
2021/05/05 03:09:10;;;;;;;3.90;2.10;;;8.20;99.90;;;;;;4957898;29;20031;-73
2021/05/05 03:11:36;;;;;;;3.17;2.08;;;8.20;99.90;;;;;;4947809;29;20393;-73
2021/05/05 03:14:02;;;;;;;4.82;2.20;;;8.20;99.90;;;;;;4951666;29;20019;-73
2021/05/05 03:16:27;;;;;;;6.28;2.00;;;8.10;99.90;;;;;;4952428;29;20046;-73
2021/05/05 03:18:53;;;;;;;6.72;2.05;;;8.10;99.90;;;;;;4959936;29;20019;-73
2021/05/05 03:21:19;;;;;;;3.42;2.00;;;8.10;99.90;;;;;;4960986;29;20050;-73
2021/05/05 03:23:45;;;;;;;5.93;2.53;;;8.10;99.90;;;;;;4947931;29;20104;-74
2021/05/05 03:26:11;;;;;;;3.53;1.80;;;8.10;99.90;;;;;;4968738;29;20049;-73
2021/05/05 03:28:37;;;;;;;3.75;1.63;;;8.10;99.90;;;;;;4954736;29;20122;-73
2021/05/05 03:31:02;;;;;;;5.63;2.40;;;8.10;99.90;;;;;;4953065;29;20059;-74
2021/05/05 03:33:28;;;;;;;4.57;2.00;;;8.10;99.90;;;;;;4957285;29;20098;-73
2021/05/05 03:35:54;;;;;;;6.38;2.13;;;8.00;99.90;;;;;;4955409;28;20465;-72
2021/05/05 03:38:20;;;;;;;5.43;2.13;;;8.00;99.90;;;;;;4955540;29;20420;-72
2021/05/05 03:40:46;;;;;;;3.85;2.42;;;8.10;99.90;;;;;;4954360;29;20043;-72
2021/05/05 03:43:12;;;;;;;5.70;2.72;;;8.10;99.90;;;;;;4954616;29;20032;-73
2021/05/05 03:45:38;;;;;;;3.33;1.77;;;8.20;99.90;;;;;;4954980;29;20027;-73
2021/05/05 03:48:05;;;;;;;3.90;1.60;;;8.20;99.90;;;;;;4956358;29;20075;-73
2021/05/05 03:50:32;;;;;;;4.55;2.00;;;8.20;99.90;;;;;;4956699;29;20032;-73
2021/05/05 03:52:58;;;;;;;3.33;2.55;;;8.20;99.90;;;;;;4957417;29;20400;-74
2021/05/05 03:55:23;;;;;;;4.32;1.88;;;8.20;99.90;;;;;;4962557;29;20038;-74
2021/05/05 03:57:49;;;;;;;5.63;1.90;;;8.30;99.90;;;;;;4958082;29;20023;-73
2021/05/05 04:00:15;;;;;;;4.03;1.83;;;8.40;99.90;;;;;;4951803;29;20038;-73
2021/05/05 04:02:41;;;;;;;5.50;2.20;;;;;;;;;;4959105;28;20137;-73
2021/05/05 04:05:08;;;;;;;3.85;2.10;;;8.50;99.90;;;;;;4955125;29;20047;-72
2021/05/05 04:07:33;;;;;;;2.08;1.70;;;8.40;99.90;;;;;;4952483;29;20492;-73
2021/05/05 04:09:59;;;;;;;4.35;2.33;;;8.50;99.90;;;;;;4929664;29;20031;-73
2021/05/05 04:12:28;;;;;;;4.85;2.35;;;8.50;99.90;;;;;;4955856;29;20023;-73
2021/05/05 04:14:54;;;;;;;2.55;1.90;;;8.60;99.90;;;;;;4956582;29;20031;-73
2021/05/05 04:17:19;;;;;;;3.55;2.22;;;8.60;99.90;;;;;;4948756;29;20032;-73
2021/05/05 04:19:45;;;;;;;5.97;1.80;;;8.60;99.90;;;;;;4948401;29;20082;-74
2021/05/05 04:22:11;;;;;;;5.10;1.80;;;8.70;99.90;;;;;;4951838;29;20035;-73
2021/05/05 04:24:38;;;;;;;4.45;1.60;;;8.70;99.90;;;;;;4952060;29;20082;-73
2021/05/05 04:27:04;;;;;;;3.65;1.70;;;8.70;99.90;;;;;;4948936;29;20470;-74
2021/05/05 04:29:29;;;;;;;2.55;1.60;;;8.70;99.90;;;;;;4949800;29;20035;-73
2021/05/05 04:31:57;;;;;;;2.67;1.88;;;8.70;99.90;;;;;;4953699;29;20106;-73
2021/05/05 04:34:23;;;;;;;3.78;2.10;;;8.70;99.90;;;;;;4964608;29;20560;-73
2021/05/05 04:36:49;;;;;;;3.25;1.52;;;8.80;99.90;;;;;;4961465;29;20024;-73
2021/05/05 04:39:14;;;;;;;6.43;2.17;;;8.70;99.90;;;;;;4962705;29;20023;-74
2021/05/05 04:41:40;;;;;;;4.65;1.95;;;8.80;99.90;;;;;;4960386;29;20055;-74
2021/05/05 04:44:06;;;;;;;3.15;1.70;;;8.80;99.90;;;;;;4964780;29;20027;-74
2021/05/05 04:46:31;;;;;;;2.80;1.90;;;8.90;99.90;;;;;;4954308;29;20027;-74
2021/05/05 04:48:57;;;;;;;3.65;1.80;;;8.90;99.90;;;;;;4957846;29;20181;-73
2021/05/05 04:51:22;;;;;;;6.80;2.17;;;9.00;99.90;;;;;;4958569;29;20063;-72
2021/05/05 04:53:48;;;;;;;2.83;1.80;;;9.00;99.90;;;;;;4954730;29;20020;-73
2021/05/05 04:56:14;;;;;;;4.30;1.77;;;9.00;99.90;;;;;;4953659;29;20086;-74
2021/05/05 04:58:39;;;;;;;2.95;1.70;;;9.00;99.90;;;;;;4952015;29;20038;-74
2021/05/05 05:01:05;;;;;;;6.68;1.90;;;9.10;99.90;;;;;;4955406;29;20028;-73
2021/05/05 05:03:30;;;;;;;6.22;1.80;;;9.10;99.90;;;;;;4948310;29;20240;-74
2021/05/05 05:05:56;;;;;;;3.67;2.03;;;9.00;99.90;;;;;;4954195;28;20716;-74
2021/05/05 05:08:21;;;;;;;4.32;2.05;;;9.10;99.90;;;;;;4955747;28;20398;-73
2021/05/05 05:10:47;;;;;;;3.75;1.70;;;9.10;99.90;;;;;;4952839;29;20023;-73
2021/05/05 05:13:13;;;;;;;4.60;2.58;;;9.10;99.90;;;;;;4946925;29;20031;-73
2021/05/05 05:15:41;;;;;;;4.82;1.70;;;9.20;99.90;;;;;;4951628;28;20519;-74
2021/05/05 05:18:07;;;;;;;4.47;1.70;;;9.30;99.90;;;;;;4952674;29;20043;-74
2021/05/05 05:20:32;;;;;;;3.88;1.58;;;9.20;99.90;;;;;;4949115;29;20038;-74
2021/05/05 05:22:58;;;;;;;4.47;1.80;;;9.30;99.90;;;;;;4941595;29;20039;-73
2021/05/05 05:25:25;;;;;;;5.18;2.10;;;9.40;99.90;;;;;;4950795;29;20114;-73
2021/05/05 05:27:52;;;;;;;4.57;2.03;;;9.40;99.90;;;;;;4948732;29;20094;-74
2021/05/05 05:30:19;;;;;;;2.92;1.95;;;9.40;99.90;;;;;;4953125;29;20027;-73
2021/05/05 05:32:47;;;;;;;4.95;2.03;;;9.60;99.90;;;;;;4946298;29;20399;-75
2021/05/05 05:35:14;;;;;;;6.25;2.05;;;9.60;99.90;;;;;;4947708;29;20039;-73
2021/05/05 05:37:39;;;;;;;3.95;1.60;;;9.70;99.90;;;;;;4946085;29;20038;-73
2021/05/05 05:40:06;;;;;;;3.35;1.95;;;9.70;99.90;;;;;;4945301;29;20027;-73
2021/05/05 05:42:32;;;;;;;2.13;1.70;;;9.60;99.90;;;;;;4944636;29;20118;-74
2021/05/05 05:44:58;;;;;;;5.70;2.33;;;9.60;99.90;;;;;;4945742;29;20189;-73
2021/05/05 05:47:23;;;;;;;5.00;1.70;;;9.70;99.90;;;;;;4949707;29;20031;-72
2021/05/05 05:49:49;;;;;;;2.50;1.75;;;9.70;99.90;;;;;;4945697;29;20035;-73
2021/05/05 05:52:15;;;;;;;5.00;2.30;;;9.50;99.90;;;;;;4949596;29;20031;-73
2021/05/05 05:54:41;;;;;;;6.60;2.13;;;9.50;99.90;;;;;;4945073;29;20110;-73
2021/05/05 05:57:07;;;;;;;3.72;2.20;;;9.40;99.90;;;;;;4952274;29;20027;-73
2021/05/05 05:59:35;;;;;;;3.53;2.58;;;9.50;99.90;;;;;;4949534;29;20090;-74
2021/05/05 06:02:01;;;;;;;5.20;2.88;;;9.50;99.90;;;;;;4938887;29;20168;-73
2021/05/05 06:04:27;;;;;;;3.35;2.42;;;9.40;99.90;;;;;;4943951;29;20604;-73
2021/05/05 06:06:52;;;;;;;6.88;2.05;;;9.50;99.90;;;;;;4953690;29;20023;-73
2021/05/05 06:09:18;;;;;;;3.22;1.88;;;9.60;99.90;;;;;;4951782;29;20027;-73
2021/05/05 06:11:43;;;;;;;6.45;2.10;;;9.70;99.90;;;;;;4946110;29;20426;-72
2021/05/05 06:14:09;;;;;;;2.97;1.77;;;10.00;99.90;;;;;;4945858;29;20035;-73
2021/05/05 06:16:35;;;;;;;2.47;1.77;;;10.10;99.90;;;;;;4941695;29;20024;-73
2021/05/05 06:19:01;;;;;;;5.63;2.03;;;10.30;99.50;;;;;;4954615;29;20031;-73
2021/05/05 06:21:26;;;;;;;3.08;2.20;;;10.20;98.90;;;;;;4947011;29;20024;-72
2021/05/05 06:23:53;;;;;;;3.42;1.80;;;10.30;99.20;;;;;;4945965;29;20035;-73
2021/05/05 06:26:19;;;;;;;3.33;1.90;;;10.20;98.70;;;;;;4945394;29;20039;-73
2021/05/05 06:28:44;;;;;;;7.00;2.03;;;10.20;98.00;;;;;;4934891;29;20111;-73
2021/05/05 06:31:10;;;;;;;2.80;2.08;;;10.20;97.80;;;;;;4940163;29;20134;-73
2021/05/05 06:33:36;;;;;;;4.13;1.90;;;10.10;97.00;;;;;;4949080;29;20106;-73
2021/05/05 06:36:02;;;;;;;3.47;1.95;;;10.10;96.80;;;;;;4948628;29;20039;-73
2021/05/05 06:38:28;;;;;;;6.88;2.08;;;10.30;97.00;;;;;;4952275;29;20038;-73
2021/05/05 06:40:53;;;;;;;2.55;1.63;;;10.50;96.00;;;;;;4943850;29;20024;-73
2021/05/05 06:43:19;;;;;;;4.53;2.03;;;11.40;93.10;;;;;;4938135;29;20062;-73
2021/05/05 06:45:45;;;;;;;3.30;1.98;;;11.80;90.30;;;;;;4945538;29;20035;-73
2021/05/05 06:48:10;;;;;;;3.78;2.15;;;12.10;89.40;;;;;;4948965;29;20039;-73
2021/05/05 06:50:36;;;;;;;3.00;2.08;;;13.50;80.80;;;;;;4953425;29;20037;-73
2021/05/05 06:53:01;;;;;;;6.82;1.80;;;15.20;66.80;;;;;;4954446;29;20062;-73
2021/05/05 06:55:27;;;;;;;3.03;2.03;;;16.80;58.40;;;;;;4950584;29;20027;-73
2021/05/05 06:57:53;;;;;;;3.45;1.63;;;17.60;53.60;;;;;;4928351;29;20031;-73
2021/05/05 07:00:19;;;;;;;4.05;1.65;;;16.90;54.20;;;;;;4947020;29;20035;-72
2021/05/05 07:02:45;;;;;;;4.43;1.80;;;15.90;55.80;;;;;;4944468;29;20406;-73
2021/05/05 07:05:12;;;;;;;2.97;2.45;;;14.50;58.90;;;;;;4938119;29;20028;-73
2021/05/05 07:07:38;;;;;;;3.08;2.10;;;13.00;63.40;;;;;;4941805;29;20035;-72
2021/05/05 07:10:04;;;;;;;6.32;2.95;;;12.30;67.40;;;;;;4945809;28;20023;-73
2021/05/05 07:12:30;;;;;;;3.45;1.95;;;11.80;71.50;;;;;;4926484;29;20055;-72
2021/05/05 07:14:55;;;;;;;2.38;1.92;;;11.40;75.00;;;;;;4954367;29;20047;-72
2021/05/05 07:17:21;;;;;;;3.22;2.42;;;11.20;78.20;;;;;;4928981;29;20113;-72
2021/05/05 07:19:49;;;;;;;5.88;2.13;;;11.10;80.30;;;;;;4952659;29;20075;-72
2021/05/05 07:22:15;;;;;;;2.90;1.90;;;10.70;84.80;;;;;;4954323;29;20114;-72
2021/05/05 07:24:41;;;;;;;3.72;2.28;;;10.70;85.70;;;;;;4956013;29;20102;-72
2021/05/05 07:27:07;;;;;;;3.15;2.60;;;10.80;86.70;;;;;;4956856;29;20114;-72
2021/05/05 07:29:32;;;;;;;4.85;2.55;;;10.90;87.80;;;;;;4954768;29;20398;-72
2021/05/05 07:31:58;;;;;;;2.63;2.17;;;10.80;89.00;;;;;;4957226;29;20058;-71
2021/05/05 07:34:25;;;;;;;3.33;2.13;;;10.90;90.30;;;;;;4955703;29;20050;-73
2021/05/05 07:36:52;;;;;;;4.35;2.10;;;12.20;83.00;;;;;;4956440;29;20493;-73
2021/05/05 07:39:32;;;;;;;4.20;2.60;;;12.90;75.00;;;;;;4955314;28;20117;-72
2021/05/05 07:45:08;;;;;;;3.00;2.08;;;12.90;73.20;;;;;;4956623;29;20055;-72
2021/05/05 07:47:39;;;;;;;4.53;2.30;;;13.30;70.00;;;;;;4955935;28;20035;-73
2021/05/05 07:50:09;;;;;;;5.28;2.47;;;12.80;70.20;;;;;;4956700;29;20034;-72
2021/05/05 07:52:36;;;;;;;2.95;2.10;;;12.40;73.00;;;;;;4955813;29;20457;-72
2021/05/05 07:55:02;;;;;;;4.18;2.00;;;12.30;74.60;;;;;;4957225;29;20081;-74
2021/05/05 07:57:28;;;;;;;4.63;2.17;;;12.40;74.50;;;;;;4959232;29;20024;-73
2021/05/05 07:59:54;;;;;;;4.00;2.25;;;14.20;67.60;;;;;;4959822;29;20030;-72
2021/05/05 08:02:19;;;;;;;2.58;1.75;;;14.60;63.60;;;;;;4955108;29;20402;-73
2021/05/05 08:04:51;;;;;;;3.72;2.10;;;13.70;64.30;;;;;;4953306;29;20031;-73
2021/05/05 08:07:18;;;;;;;3.00;1.60;;;13.00;67.30;;;;;;4948849;29;20035;-74
2021/05/05 08:09:45;;;;;;;3.92;2.08;;;12.40;68.80;;;;;;4954081;29;20042;-72
2021/05/05 08:12:11;;;;;;;3.80;2.13;;;12.30;70.00;;;;;;4954509;29;20040;-72
2021/05/05 08:14:38;;;;;;;4.38;2.35;;;12.30;70.50;;;;;;4962128;29;20101;-71
2021/05/05 08:17:04;;;;;;;5.10;2.42;;;13.20;67.40;;;;;;4959678;29;20019;-71
2021/05/05 08:19:29;;;;;;;3.38;1.77;;;13.70;64.30;;;;;;4952652;29;20482;-71
2021/05/05 08:21:55;;;;;;;2.92;1.73;;;14.10;63.40;;;;;;4953677;29;20031;-71
2021/05/05 08:24:20;;;;;;;3.33;2.20;;;14.70;61.50;;;;;;4953504;29;20039;-71
2021/05/05 08:26:46;;;;;;;3.85;2.30;;;16.60;58.20;;;;;;4953324;29;20123;-73
2021/05/05 08:29:12;;;;;;;4.72;2.00;;;17.60;53.60;;;;;;4952954;29;20039;-72
2021/05/05 08:31:37;;;;;;;2.78;1.90;;;17.10;51.90;;;;;;4953317;29;20040;-71
2021/05/05 08:34:03;;;;;;;4.15;2.20;;;17.10;52.40;;;;;;4953203;29;20031;-72
2021/05/05 08:36:28;;;;;;;4.85;2.38;;;15.60;54.50;;;;;;4952049;29;20747;-71
2021/05/05 08:38:55;;;;;;;2.42;1.60;;;14.20;58.00;;;;;;4952857;29;20359;-70
2021/05/05 08:41:21;;;;;;;5.93;2.63;;;13.50;61.60;;;;;;4952682;29;20039;-72
2021/05/05 08:43:47;;;;;;;5.85;3.70;;;12.80;66.20;;;;;;4952785;29;20110;-72
2021/05/05 08:46:13;;;;;;;8.27;3.42;;;13.20;67.90;;;;;;4952637;29;20716;-71
2021/05/05 08:48:39;;;;;;;2.75;2.45;;;13.80;67.90;;;;;;4952320;28;20090;-72
2021/05/05 08:51:08;;;;;;;5.78;2.85;;;15.20;63.70;;;;;;4952583;29;20398;-72
2021/05/05 08:53:34;;;;;;;5.22;2.85;;;15.90;59.90;;;;;;4951714;29;20027;-72
2021/05/05 08:55:59;;;;;;;154.68;106.38;;;15.10;62.20;;;;;;4950839;29;20109;-72
2021/05/05 08:58:26;;;;;;;342.88;282.00;;;13.10;74.50;;;;;;4952329;29;20126;-72
2021/05/05 09:00:51;;;;;;;3.30;2.88;;;13.10;75.10;;;;;;4955318;29;20031;-74
2021/05/05 09:03:17;;;;;;;3.70;2.72;;;12.60;79.30;;;;;;4955660;29;20689;-74
2021/05/05 09:05:53;;;;;;;4.68;2.45;;;13.00;82.40;;;;;;4945328;29;20059;-74
2021/05/05 09:08:21;;;;;;;3.83;2.30;;;14.50;78.30;;;;;;4942352;29;20043;-74
2021/05/05 09:11:15;;;;;;;3.80;1.88;;;15.70;73.80;;;;;;4946283;29;20039;-74
2021/05/05 09:13:48;;;;;;;3.55;2.10;;;17.50;59.40;;;;;;4949207;29;20023;-74
2021/05/05 09:16:26;;;;;;;3.78;1.70;;;19.10;54.10;;;;;;4941569;29;20279;-75
2021/05/05 09:18:57;;;;;;;4.32;2.70;;;19.90;48.80;;;;;;4949505;29;20035;-75
2021/05/05 09:21:27;;;;;;;;;;;20.50;48.40;;;;;;4949687;29;20023;-74
2021/05/05 09:24:12;;;;;;;2.47;1.55;;;19.60;48.10;;;;;;4947109;29;19915;-75
2021/05/05 09:26:38;;;;;;;2.15;1.20;;;18.70;48.90;;;;;;4946813;29;20074;-75
2021/05/05 09:29:03;;;;;;;3.00;1.35;;;19.00;48.60;;;;;;4955456;29;20028;-76
2021/05/05 09:31:37;;;;;;;2.53;1.42;;;19.60;47.40;;;;;;4958071;29;20389;-75
2021/05/05 09:34:07;;;;;;;2.67;1.70;;;19.40;46.90;;;;;;4960036;29;20046;-75
2021/05/05 09:36:32;;;;;;;4.00;1.40;;;19.20;46.80;;;;;;4953064;29;20027;-75
2021/05/05 09:39:02;;;;;;;2.50;1.40;;;18.50;46.70;;;;;;4953443;29;20031;-75
2021/05/05 09:41:33;;;;;;;2.88;1.40;;;17.50;47.00;;;;;;4950650;29;20023;-74
2021/05/05 09:44:01;;;;;;;2.65;1.85;;;16.40;49.70;;;;;;4953162;29;20058;-74
2021/05/05 09:46:43;;;;;;;3.55;2.08;;;15.80;51.70;;;;;;4945929;29;20093;-74
2021/05/05 09:49:17;;;;;;;;;;;15.20;52.80;;;;;;4941303;29;20035;-74
2021/05/05 09:51:50;;;;;;;2.28;1.48;;;14.90;53.10;;;;;;4952494;29;20197;-75
2021/05/05 09:54:32;;;;;;;4.40;1.38;;;14.30;53.90;;;;;;4952283;29;20027;-74
2021/05/05 09:57:19;;;;;;;4.03;2.03;;;13.20;56.80;;;;;;4946036;29;20027;-75
2021/05/05 10:00:06;;;;;;;4.03;2.65;;;13.10;57.70;;;;;;4926411;29;20449;-73
2021/05/05 10:02:45;;;;;;;3.22;1.83;;;12.60;62.90;;;;;;4946586;28;20042;-74
2021/05/05 10:05:19;;;;;;;3.20;1.80;;;12.30;76.30;;;;;;4952033;29;20110;-73
2021/05/05 10:07:58;;;;;;;2.35;1.63;;;11.90;96.50;;;;;;4911833;29;20035;-73
2021/05/05 10:10:33;;;;;;;2.42;2.00;;;11.30;99.00;;;;;;4951581;29;20024;-73
2021/05/05 10:13:02;;;;;;;2.33;1.80;;;11.10;99.90;;;;;;4945460;29;20086;-74
2021/05/05 10:15:30;;;;;;;2.40;1.77;;;12.40;98.10;;;;;;4944090;29;20062;-74
2021/05/05 10:17:57;;;;;;;3.67;1.70;;;14.80;90.70;;;;;;4945851;29;20020;-75
2021/05/05 10:20:25;;;;;;;2.50;2.28;;;16.50;76.30;;;;;;4950688;29;20118;-75
2021/05/05 10:22:55;;;;;;;2.00;1.42;;;17.40;68.00;;;;;;4952083;29;20054;-75
2021/05/05 10:25:22;;;;;;;1.60;1.50;;;19.30;60.10;;;;;;4926207;29;20054;-75
2021/05/05 10:27:48;;;;;;;3.08;1.60;;;18.90;57.40;;;;;;4950475;29;20031;-73
2021/05/05 10:30:18;;;;;;;1.60;1.50;;;19.40;56.70;;;;;;4950274;29;20023;-75
2021/05/05 10:32:45;;;;;;;2.67;2.03;;;19.90;54.90;;;;;;4951683;29;20126;-76
2021/05/05 10:35:14;;;;;;;2.15;1.52;;;20.00;54.80;;;;;;4949252;29;20035;-75
2021/05/05 10:37:59;;;;;;;1.95;1.60;;;19.40;54.30;;;;;;4949805;29;20019;-75
2021/05/05 10:40:25;;;;;;;4.93;1.85;;;18.60;56.80;;;;;;4950499;29;20062;-75
2021/05/05 10:42:56;;;;;;;4.28;1.85;;;18.00;56.70;;;;;;4951149;29;20468;-75
2021/05/05 10:45:42;;;;;;;;;;;16.80;55.00;;;;;;4951728;29;20066;-74
2021/05/05 10:48:17;;;;;;;2.60;1.73;;;16.40;57.20;;;;;;4948526;29;19927;-74
2021/05/05 10:50:51;;;;;;;1.63;1.40;;;15.70;57.80;;;;;;4953734;29;20097;-74
2021/05/05 10:53:21;;;;;;;4.07;1.40;;;15.90;56.30;;;;;;4952122;29;20038;-75
2021/05/05 10:55:56;;;;;;;2.97;1.65;;;17.30;54.10;;;;;;4953435;29;20016;-74
2021/05/05 10:58:31;;;;;;;2.42;1.77;;;19.20;49.40;;;;;;4951023;29;20097;-74
2021/05/05 11:01:07;;;;;;;2.75;1.38;;;20.00;47.50;;;;;;4943282;29;20039;-75
2021/05/05 11:03:42;;;;;;;2.50;1.20;;;20.60;45.50;;;;;;4944854;29;20019;-75
2021/05/05 11:06:30;;;;;;;2.40;1.27;;;20.90;44.40;;;;;;4947000;29;20039;-74
2021/05/05 11:09:16;;;;;;;1.27;1.17;;;21.00;44.10;;;;;;4946718;29;20030;-75
2021/05/05 11:11:45;;;;;;;7.95;1.85;;;20.80;43.20;;;;;;4948054;29;20223;-75
2021/05/05 11:14:31;;;;;;;3.50;1.60;;;18.90;45.80;;;;;;4954729;28;20490;-74
2021/05/05 11:17:02;;;;;;;2.00;1.60;;;17.80;47.90;;;;;;4934699;29;20453;-74
2021/05/05 11:19:42;;;;;;;2.70;1.45;;;18.30;48.30;;;;;;4947327;29;20110;-73
2021/05/05 11:22:18;;;;;;;3.00;1.15;;;18.10;48.00;;;;;;4952457;29;20069;-74
2021/05/05 11:24:48;;;;;;;2.00;1.10;;;17.70;49.30;;;;;;4956935;29;20147;-73
2021/05/05 11:27:15;;;;;;;5.28;1.38;;;17.50;48.50;;;;;;4951603;29;20054;-73
2021/05/05 11:29:54;;;;;;;5.68;1.20;;;16.90;49.40;;;;;;4957866;29;20023;-75
2021/05/05 11:32:24;;;;;;;3.83;1.25;;;16.40;50.30;;;;;;4947957;29;20034;-74
2021/05/05 11:34:50;;;;;;;1.90;0.75;;;17.80;48.30;;;;;;4958586;29;20050;-73
2021/05/05 11:37:26;;;;;;;3.92;0.85;;;17.70;46.50;;;;;;4955866;29;20027;-74
2021/05/05 11:39:58;;;;;;;3.35;1.02;;;17.80;46.80;;;;;;4956598;29;20031;-75
2021/05/05 11:42:38;;;;;;;7.28;1.27;;;18.20;46.60;;;;;;4955854;29;20023;-75
2021/05/05 11:45:14;;;;;;;3.33;1.23;;;18.60;44.90;;;;;;4950091;29;20540;-74
2021/05/05 11:47:43;;;;;;;8.75;1.13;;;18.40;45.20;;;;;;4928642;29;20031;-75
2021/05/05 11:50:11;;;;;;;5.97;1.98;;;17.60;45.60;;;;;;4956747;29;20047;-75
2021/05/05 11:52:48;;;;;;;4.40;1.30;;;16.90;46.70;;;;;;4957953;29;20035;-74
2021/05/05 11:55:20;;;;;;;4.57;1.40;;;16.40;47.40;;;;;;4954695;29;20035;-73
2021/05/05 11:57:51;;;;;;;4.78;1.38;;;17.10;46.20;;;;;;4953548;29;20043;-74
2021/05/05 12:00:20;;;;;;;3.25;1.45;;;18.90;43.90;;;;;;4954320;29;20066;-74
2021/05/05 12:02:47;;;;;;;2.50;1.10;;;20.00;41.80;;;;;;4958415;29;20047;-74
2021/05/05 12:05:39;;;;;;;4.20;1.45;;;20.40;40.30;;;;;;4954966;29;20053;-74
2021/05/05 12:08:08;;;;;;;3.13;1.00;;;20.30;40.10;;;;;;4950718;29;20027;-73
2021/05/05 12:10:52;;;;;;;1.90;0.88;;;18.90;41.50;;;;;;4955194;29;20027;-75
2021/05/05 12:13:24;;;;;;;2.33;1.00;;;18.30;42.90;;;;;;4954309;29;20151;-74
2021/05/05 12:15:59;;;;;;;3.65;1.13;;;17.90;43.90;;;;;;4953911;29;20430;-74
2021/05/05 12:18:37;;;;;;;13.57;2.67;;;17.70;43.20;;;;;;4952257;29;20482;-74
2021/05/05 12:21:08;;;;;;;5.60;3.08;;;18.60;40.90;;;;;;4948410;29;20035;-74
2021/05/05 12:23:57;;;;;;;1.58;1.05;;;19.60;40.90;;;;;;4953212;28;20482;-74
2021/05/05 12:26:33;;;;;;;4.10;1.30;;;20.20;39.50;;;;;;4952782;29;20122;-74
2021/05/05 12:29:01;;;;;;;4.05;1.80;;;20.70;39.70;;;;;;4943919;29;20041;-74
2021/05/05 12:31:29;;;;;;;4.60;1.60;;;20.30;39.50;;;;;;4945624;29;20174;-73
2021/05/05 12:34:00;;;;;;;3.92;1.70;;;19.40;40.20;;;;;;4930374;29;20087;-74
2021/05/05 12:36:28;;;;;;;2.83;1.27;;;18.50;42.30;;;;;;4932636;29;20036;-72
2021/05/05 12:38:59;;;;;;;3.28;1.35;;;19.10;42.10;;;;;;4920940;29;20066;-73
2021/05/05 12:41:27;;;;;;;2.85;1.25;;;19.60;41.90;;;;;;4924852;29;20048;-72
2021/05/05 12:43:58;;;;;;;5.82;1.40;;;19.10;40.70;;;;;;4932868;29;20036;-72
2021/05/05 12:46:31;;;;;;;4.40;1.67;;;18.00;41.50;;;;;;4926822;29;20040;-73
2021/05/05 12:48:57;;;;;;;6.97;2.05;;;17.10;43.10;;;;;;4917294;29;20083;-72
2021/05/05 12:51:24;;;;;;;7.05;2.10;;;16.30;45.40;;;;;;4930435;29;20025;-76
2021/05/05 12:53:59;;;;;;;5.70;1.77;;;16.30;45.70;;;;;;4931889;29;20534;-75
2021/05/05 12:56:48;;;;;;;2.60;1.40;;;16.60;45.50;;;;;;4929652;29;20112;-74
2021/05/05 12:59:18;;;;;;;7.13;4.25;;;16.60;45.90;;;;;;4923160;29;20122;-74
2021/05/05 13:01:45;;;;;;;3.78;2.13;;;16.20;46.30;;;;;;4931360;29;20074;-72